Map

Track Data

SID SEASON NUMBER BASIN SUBBASIN NAME ISO_TIME NATURE LAT LON WMO_WIND WMO_PRES WMO_AGENCY TRACK_TYPE DIST2LAND LANDFALL IFLAG USA_AGENCY USA_ATCF_ID USA_LAT USA_LON USA_RECORD USA_STATUS USA_WIND USA_PRES USA_SSHS USA_R34_NE USA_R34_SE USA_R34_SW USA_R34_NW USA_R50_NE USA_R50_SE USA_R50_SW USA_R50_NW USA_R64_NE USA_R64_SE USA_R64_SW USA_R64_NW USA_POCI USA_ROCI USA_RMW USA_EYE TOKYO_LAT TOKYO_LON TOKYO_GRADE TOKYO_WIND TOKYO_PRES TOKYO_R50_DIR TOKYO_R50_LONG TOKYO_R50_SHORT TOKYO_R30_DIR TOKYO_R30_LONG TOKYO_R30_SHORT TOKYO_LAND CMA_LAT CMA_LON CMA_CAT CMA_WIND CMA_PRES HKO_LAT HKO_LON HKO_CAT HKO_WIND HKO_PRES NEWDELHI_LAT NEWDELHI_LON NEWDELHI_GRADE NEWDELHI_WIND NEWDELHI_PRES NEWDELHI_CI NEWDELHI_DP NEWDELHI_POCI REUNION_LAT REUNION_LON REUNION_TYPE REUNION_WIND REUNION_PRES REUNION_TNUM REUNION_CI REUNION_RMW REUNION_R34_NE REUNION_R34_SE REUNION_R34_SW REUNION_R34_NW REUNION_R50_NE REUNION_R50_SE REUNION_R50_SW REUNION_R50_NW REUNION_R64_NE REUNION_R64_SE REUNION_R64_SW REUNION_R64_NW BOM_LAT BOM_LON BOM_TYPE BOM_WIND BOM_PRES BOM_TNUM BOM_CI BOM_RMW BOM_R34_NE BOM_R34_SE BOM_R34_SW BOM_R34_NW BOM_R50_NE BOM_R50_SE BOM_R50_SW BOM_R50_NW BOM_R64_NE BOM_R64_SE BOM_R64_SW BOM_R64_NW BOM_ROCI BOM_POCI BOM_EYE BOM_POS_METHOD BOM_PRES_METHOD NADI_LAT NADI_LON NADI_CAT NADI_WIND NADI_PRES WELLINGTON_LAT WELLINGTON_LON WELLINGTON_WIND WELLINGTON_PRES DS824_LAT DS824_LON DS824_STAGE DS824_WIND DS824_PRES TD9636_LAT TD9636_LON TD9636_STAGE TD9636_WIND TD9636_PRES TD9635_LAT TD9635_LON TD9635_WIND TD9635_PRES TD9635_ROCI NEUMANN_LAT NEUMANN_LON NEUMANN_CLASS NEUMANN_WIND NEUMANN_PRES MLC_LAT MLC_LON MLC_CLASS MLC_WIND MLC_PRES USA_GUST BOM_GUST BOM_GUST_PER REUNION_GUST REUNION_GUST_PER USA_SEAHGT USA_SEARAD_NE USA_SEARAD_SE USA_SEARAD_SW USA_SEARAD_NW STORM_SPEED STORM_DIR
1884208N13127 1884 22 WP MM NOT_NAMED 1884-07-25 16:00:00 NR 12.9000 126.600 main 142 124 __________O___ -1 12.9000 126.600 4 23 310
1884208N13127 1884 22 WP MM NOT_NAMED 1884-07-25 18:00:00 NR 13.3890 125.997 main 132 78 __________P___ -1 13.3890 125.997 4 22 310
1884208N13127 1884 22 WP MM NOT_NAMED 1884-07-25 21:00:00 NR 14.0879 125.123 main 78 59 __________P___ -1 14.0879 125.123 4 21 309
1884208N13127 1884 22 WP MM NOT_NAMED 1884-07-26 00:00:00 NR 14.7009 124.331 main 78 78 __________P___ -1 14.7009 124.331 4 18 308
1884208N13127 1884 22 WP MM NOT_NAMED 1884-07-26 03:00:00 NR 15.1790 123.678 main 141 134 __________P___ -1 15.1790 123.678 4 15 307
1884208N13127 1884 22 WP MM NOT_NAMED 1884-07-26 04:00:00 NR 15.3000 123.500 main 139 132 __________O___ -1 15.3000 123.500 4 11 304
1884208N13127 1884 22 WP MM NOT_NAMED 1884-07-26 06:00:00 NR 15.4795 123.212 main 132 100 __________P___ -1 15.4795 123.212 4 8 300
1884208N13127 1884 22 WP MM NOT_NAMED 1884-07-26 09:00:00 NR 15.6238 122.913 main 100 77 __________P___ -1 15.6238 122.913 4 5 292
1884208N13127 1884 22 WP MM NOT_NAMED 1884-07-26 12:00:00 NR 15.6737 122.717 main 77 69 __________P___ -1 15.6737 122.717 4 3 281
1884208N13127 1884 22 WP MM NOT_NAMED 1884-07-26 15:00:00 NR 15.6909 122.557 main 69 61 __________P___ -1 15.6909 122.557 4 3 277
1884208N13127 1884 22 WP MM NOT_NAMED 1884-07-26 16:00:00 NR 15.7000 122.500 main 61 39 __________O___ -1 15.7000 122.500 4 4 288
1884208N13127 1884 22 WP MM NOT_NAMED 1884-07-26 18:00:00 NR 15.7560 122.349 main 39 24 __________P___ -1 15.7560 122.349 4 5 291
1884208N13127 1884 22 WP MM NOT_NAMED 1884-07-26 21:00:00 NR 15.8397 122.122 main 24 11 __________P___ -1 15.8397 122.122 4 5 292
1884208N13127 1884 22 WP MM NOT_NAMED 1884-07-27 00:00:00 NR 15.9346 121.880 main 15 0 __________P___ -1 15.9346 121.880 4 5 293
1884208N13127 1884 22 WP MM NOT_NAMED 1884-07-27 03:00:00 NR 16.0531 121.603 main 0 0 __________P___ -1 16.0531 121.603 4 6 294
1884208N13127 1884 22 WP MM NOT_NAMED 1884-07-27 04:00:00 NR 16.1000 121.500 main 0 0 __________O___ -1 16.1000 121.500 4 7 296
1884208N13127 1884 22 WP MM NOT_NAMED 1884-07-27 06:00:00 NR 16.2133 121.263 main 0 0 __________P___ -1 16.2133 121.263 4 8 297
1884208N13127 1884 22 WP MM NOT_NAMED 1884-07-27 09:00:00 NR 16.4084 120.868 main 0 0 __________P___ -1 16.4084 120.868 4 9 298
1884208N13127 1884 22 WP MM NOT_NAMED 1884-07-27 12:00:00 NR 16.6198 120.450 main 0 0 __________P___ -1 16.6198 120.450 4 9 298
1884208N13127 1884 22 WP MM NOT_NAMED 1884-07-27 15:00:00 NR 16.8318 120.034 main 39 39 __________P___ -1 16.8318 120.034 4 9 298
1884208N13127 1884 22 WP MM NOT_NAMED 1884-07-27 16:00:00 NR 16.9000 119.900 main 54 54 __________O___ -1 16.9000 119.900 4 8 297
1884208N13127 1884 22 WP MM NOT_NAMED 1884-07-27 18:00:00 NR 17.0087 119.678 main 77 77 __________P___ -1 17.0087 119.678 4 7 297
1884208N13127 1884 22 WP MM NOT_NAMED 1884-07-27 21:00:00 NR 17.1654 119.359 main 105 113 __________P___ -1 17.1654 119.359 4 7 297
1884208N13127 1884 22 WP MM NOT_NAMED 1884-07-28 00:00:00 NR 17.3314 119.025 main 140 139 __________P___ -1 17.3314 119.025 4 8 298
1884208N13127 1884 22 WP MM NOT_NAMED 1884-07-28 03:00:00 NR 17.5257 118.644 main 180 180 __________P___ -1 17.5257 118.644 4 9 298
1884208N13127 1884 22 WP MM NOT_NAMED 1884-07-28 04:00:00 NR 17.6000 118.500 main 190 190 __________O___ -1 17.6000 118.500 4 10 301
1884208N13127 1884 22 WP MM NOT_NAMED 1884-07-28 06:00:00 NR 17.7898 118.177 main 223 234 __________P___ -1 17.7898 118.177 4 12 302
1884208N13127 1884 22 WP MM NOT_NAMED 1884-07-28 09:00:00 NR 18.1065 117.634 main 291 291 __________P___ -1 18.1065 117.634 4 13 301
1884208N13127 1884 22 WP MM NOT_NAMED 1884-07-28 12:00:00 NR 18.4280 117.040 main 360 360 __________P___ -1 18.4280 117.040 4 13 298
1884208N13127 1884 22 WP MM NOT_NAMED 1884-07-28 15:00:00 NR 18.7172 116.413 main 430 430 __________P___ -1 18.7172 116.413 4 13 295
1884208N13127 1884 22 WP MM NOT_NAMED 1884-07-28 16:00:00 NR 18.8000 116.200 main 435 407 __________O___ -1 18.8000 116.200 4 13 290
1884208N13127 1884 22 WP MM NOT_NAMED 1884-07-28 18:00:00 NR 18.9449 115.744 main 407 365 __________P___ -1 18.9449 115.744 4 14 286
1884208N13127 1884 22 WP MM NOT_NAMED 1884-07-28 21:00:00 NR 19.1184 115.041 main 365 335 __________P___ -1 19.1184 115.041 4 13 283
1884208N13127 1884 22 WP MM NOT_NAMED 1884-07-29 00:00:00 NR 19.2358 114.365 main 335 295 __________P___ -1 19.2358 114.365 4 12 278
1884208N13127 1884 22 WP MM NOT_NAMED 1884-07-29 03:00:00 NR 19.2941 113.770 main 295 274 __________P___ -1 19.2941 113.770 4 11 275
1884208N13127 1884 22 WP MM NOT_NAMED 1884-07-29 04:00:00 NR 19.3000 113.600 main 274 243 __________O___ -1 19.3000 113.600 4 8 270
1884208N13127 1884 22 WP MM NOT_NAMED 1884-07-29 06:00:00 NR 19.2972 113.331 main 243 214 __________P___ -1 19.2972 113.331 4 7 264
1884208N13127 1884 22 WP MM NOT_NAMED 1884-07-29 09:00:00 NR 19.2436 113.022 main 214 194 __________P___ -1 19.2436 113.022 4 5 254
1884208N13127 1884 22 WP MM NOT_NAMED 1884-07-29 12:00:00 NR 19.1501 112.785 main 194 176 __________P___ -1 19.1501 112.785 4 5 244
1884208N13127 1884 22 WP MM NOT_NAMED 1884-07-29 15:00:00 NR 19.0379 112.573 main 180 171 __________P___ -1 19.0379 112.573 4 5 241
1884208N13127 1884 22 WP MM NOT_NAMED 1884-07-29 16:00:00 NR 19.0000 112.500 main 171 161 __________O___ -1 19.0000 112.500 4 4 246
1884208N13127 1884 22 WP MM NOT_NAMED 1884-07-29 18:00:00 NR 18.9488 112.359 main 166 139 __________P___ -1 18.9488 112.359 4 4 248
1884208N13127 1884 22 WP MM NOT_NAMED 1884-07-29 21:00:00 NR 18.8661 112.148 main 139 130 __________P___ -1 18.8661 112.148 4 5 248
1884208N13127 1884 22 WP MM NOT_NAMED 1884-07-30 00:00:00 NR 18.7686 111.894 main 130 104 __________P___ -1 18.7686 111.894 4 6 249
1884208N13127 1884 22 WP MM NOT_NAMED 1884-07-30 03:00:00 NR 18.6473 111.546 main 104 95 __________P___ -1 18.6473 111.546 4 7 250
1884208N13127 1884 22 WP MM NOT_NAMED 1884-07-30 04:00:00 NR 18.6000 111.400 main 95 62 __________O___ -1 18.6000 111.400 4 10 252
1884208N13127 1884 22 WP MM NOT_NAMED 1884-07-30 06:00:00 NR 18.4877 111.033 main 62 38 __________P___ -1 18.4877 111.033 4 12 252
1884208N13127 1884 22 WP MM NOT_NAMED 1884-07-30 09:00:00 NR 18.2934 110.382 main 38 11 __________P___ -1 18.2934 110.382 4 14 253
1884208N13127 1884 22 WP MM NOT_NAMED 1884-07-30 12:00:00 NR 18.0817 109.662 main 11 11 __________P___ -1 18.0817 109.662 4 14 253
1884208N13127 1884 22 WP MM NOT_NAMED 1884-07-30 15:00:00 NR 17.8685 108.934 main 56 56 __________P___ -1 17.8685 108.934 4 14 253
1884208N13127 1884 22 WP MM NOT_NAMED 1884-07-30 16:00:00 NR 17.8000 108.700 main 74 74 __________O___ -1 17.8000 108.700 4 14 253
1884208N13127 1884 22 WP MM NOT_NAMED 1884-07-30 18:00:00 NR 17.6694 108.253 main 98 69 __________P___ -1 17.6694 108.253 4 13 253
1884208N13127 1884 22 WP MM NOT_NAMED 1884-07-30 21:00:00 NR 17.4876 107.629 main 69 15 __________P___ -1 17.4876 107.629 4 12 253
1884208N13127 1884 22 WP MM NOT_NAMED 1884-07-31 00:00:00 NR 17.3177 107.045 main 15 0 __________P___ -1 17.3177 107.045 4 11 253
1884208N13127 1884 22 WP MM NOT_NAMED 1884-07-31 03:00:00 NR 17.1541 106.485 main 0 0 __________P___ -1 17.1541 106.485 4 11 253
1884208N13127 1884 22 WP MM NOT_NAMED 1884-07-31 04:00:00 NR 17.1000 106.300 main 0 __________O___ -1 17.1000 106.300 7 11 253

Digital Typhoon Data and Search

About IBTrACS Database

This database is a web-friendly format of International Best Track Archive for Climate Stewardship (IBTrACS), a global best track data archive curated by NOAA dating back to 1842.

Updated: 2021-10-25